Time;durP1;ratioP1;P1;durP2;ratioP2;P2;SDS_P1;SDS_P2;PMS_P1;PMS_P2;Temp;Humidity;BMP_temperature;BMP_pressure;BME280_temperature;BME280_humidity;BME280_pressure;Samples;Min_cycle;Max_cycle;Signal;HPM_P1;HPM_P2
2023/10/28 00:01:11;;;;;;;1.80;0.40;;;;;;;18.96;48.41;98948.46;107660;1251;108763;-61
2023/10/28 00:03:40;;;;;;;1.40;0.40;;;;;;;18.90;48.51;98952.73;107624;1254;106729;-60
2023/10/28 00:06:08;;;;;;;2.90;0.30;;;;;;;18.86;48.52;98957.31;107600;1255;97868;-60
2023/10/28 00:08:37;;;;;;;1.70;0.50;;;;;;;18.82;48.67;98962.93;107427;1253;97721;-62
2023/10/28 00:11:07;;;;;;;2.80;0.40;;;;;;;18.76;48.54;98975.38;107670;1251;111489;-61
2023/10/28 00:13:36;;;;;;;1.30;0.40;;;;;;;18.72;48.62;98980.52;107560;1253;108119;-61
2023/10/28 00:16:05;;;;;;;0.40;0.20;;;;;;;18.66;48.76;98994.48;107589;1253;108635;-60
2023/10/28 00:18:34;;;;;;;2.30;0.20;;;;;;;18.61;47.88;99005.27;107626;1252;97851;-61
2023/10/28 00:21:07;;;;;;;0.70;0.20;;;;;;;18.59;47.25;99016.24;107617;1253;98489;-61
2023/10/28 00:23:36;;;;;;;0.20;0.10;;;;;;;18.61;46.55;99024.66;107625;1253;111834;-61
2023/10/28 00:26:05;;;;;;;8.50;0.30;;;;;;;18.63;46.38;99028.86;107575;1253;109592;-61
2023/10/28 00:28:34;;;;;;;2.90;0.30;;;;;;;18.63;46.10;99037.09;107655;1255;107379;-62
2023/10/28 00:31:03;;;;;;;0.30;0.10;;;;;;;18.63;45.39;99034.36;107572;1251;97848;-62
2023/10/28 00:33:34;;;;;;;3.20;0.20;;;;;;;18.67;45.01;99029.66;107671;1255;98592;-62
2023/10/28 00:36:11;;;;;;;0.00;0.00;;;;;;;18.71;44.62;99029.55;107633;1253;112423;-62
2023/10/28 00:38:39;;;;;;;1.20;0.20;;;;;;;18.76;44.30;99023.43;107648;1253;108690;-61
2023/10/28 00:41:08;;;;;;;0.60;0.10;;;;;;;18.77;44.22;99018.78;107609;1254;107068;-61
2023/10/28 00:43:37;;;;;;;0.90;0.20;;;;;;;18.77;44.10;99019.66;107539;1256;98678;-61
2023/10/28 00:46:07;;;;;;;0.70;0.10;;;;;;;18.75;43.87;99021.48;107625;1253;98360;-61
2023/10/28 00:48:37;;;;;;;0.70;0.30;;;;;;;18.72;43.79;99026.85;107667;1254;111223;-60
2023/10/28 00:51:06;;;;;;;3.40;0.10;;;;;;;18.67;43.61;99048.31;107650;1253;108638;-61
2023/10/28 00:53:35;;;;;;;5.10;0.10;;;;;;;18.63;43.83;99050.11;107636;1252;107504;-60
2023/10/28 00:56:05;;;;;;;3.40;0.20;;;;;;;18.59;43.47;99055.63;107552;1253;97929;-61
2023/10/28 00:58:35;;;;;;;3.70;0.50;;;;;;;18.56;43.52;99058.59;107640;1252;98555;-60
2023/10/28 01:01:04;;;;;;;2.80;0.10;;;;;;;18.53;43.39;99060.10;107619;1251;110519;-62
2023/10/28 01:03:32;;;;;;;4.20;0.40;;;;;;;18.49;43.67;99066.23;107609;1254;109242;-61
2023/10/28 01:06:00;;;;;;;8.50;0.20;;;;;;;18.43;43.04;99076.59;107602;1254;108254;-62
2023/10/28 01:08:28;;;;;;;5.60;0.10;;;;;;;18.40;42.33;99084.23;107439;1251;97841;-62
2023/10/28 01:11:02;;;;;;;11.40;0.30;;;;;;;18.37;42.32;99085.73;107656;1251;97768;-60
2023/10/28 01:13:31;;;;;;;0.70;0.10;;;;;;;18.32;42.44;99091.66;107475;1254;110696;-62
2023/10/28 01:16:00;;;;;;;3.00;0.10;;;;;;;18.26;42.18;99100.48;107481;1251;109800;-61
2023/10/28 01:18:28;;;;;;;0.60;0.30;;;;;;;18.20;42.04;99098.34;107538;1251;107102;-61
2023/10/28 01:20:56;;;;;;;2.90;0.20;;;;;;;18.12;41.36;99098.17;107602;1251;97848;-60
2023/10/28 01:23:25;;;;;;;0.90;0.10;;;;;;;18.07;41.78;99093.59;107630;1251;97723;-60
2023/10/28 01:25:53;;;;;;;1.20;0.20;;;;;;;18.00;41.23;99102.63;107517;1250;111401;-60
2023/10/28 01:28:21;;;;;;;1.40;0.20;;;;;;;17.96;40.51;99122.66;107631;1251;109242;-61
2023/10/28 01:30:50;;;;;;;1.00;0.20;;;;;;;17.98;39.85;99144.79;107593;1256;107795;-61
2023/10/28 01:33:19;;;;;;;1.70;0.20;;;;;;;17.98;39.60;99147.97;107490;1251;97819;-63
2023/10/28 01:35:48;;;;;;;1.20;0.20;;;;;;;17.99;39.46;99153.69;107514;1251;97830;-60
2023/10/28 01:38:16;;;;;;;5.10;0.20;;;;;;;17.98;39.22;99160.57;107536;1251;111382;-62
2023/10/28 01:40:44;;;;;;;5.20;0.30;;;;;;;17.98;39.08;99160.31;107537;1251;110544;-62
2023/10/28 01:43:14;;;;;;;1.10;0.20;;;;;;;17.98;39.05;99162.41;107429;1254;108504;-61
2023/10/28 01:45:42;;;;;;;1.40;0.20;;;;;;;17.96;39.10;99170.01;107664;1256;97950;-61
2023/10/28 01:48:12;;;;;;;2.20;1.00;;;;;;;17.94;39.18;99170.80;107496;1251;97738;-62
2023/10/28 01:50:41;;;;;;;1.90;0.50;;;;;;;17.89;39.42;99193.10;107646;1251;112088;-61
2023/10/28 01:53:09;;;;;;;2.70;0.50;;;;;;;17.85;39.26;99182.81;107509;1251;107515;-62
2023/10/28 01:55:38;;;;;;;1.30;0.40;;;;;;;17.83;39.26;99190.27;107474;1254;108095;-61
2023/10/28 01:58:07;;;;;;;1.10;0.40;;;;;;;17.81;39.36;99197.39;107594;1251;97905;-61
2023/10/28 02:00:35;;;;;;;0.50;0.20;;;;;;;17.79;39.40;99202.52;107467;1253;97902;-61
2023/10/28 02:03:03;;;;;;;2.00;0.30;;;;;;;17.77;39.38;99206.27;107628;1251;112889;-61
2023/10/28 02:05:32;;;;;;;3.40;0.80;;;;;;;17.73;39.53;99204.58;107566;1253;109946;-61
2023/10/28 02:08:00;;;;;;;0.50;0.30;;;;;;;17.67;39.80;99210.23;107491;1253;107602;-62
2023/10/28 02:10:28;;;;;;;0.40;0.20;;;;;;;17.61;39.85;99209.65;107635;1251;97741;-61
2023/10/28 02:12:56;;;;;;;7.40;0.60;;;;;;;17.56;39.91;99211.44;107608;1253;98379;-62
2023/10/28 02:15:25;;;;;;;3.40;0.20;;;;;;;17.51;40.14;99216.04;107598;1251;111295;-61
2023/10/28 02:17:54;;;;;;;0.10;0.10;;;;;;;17.46;40.28;99216.69;107679;1251;110225;-62
2023/10/28 02:20:22;;;;;;;0.80;0.10;;;;;;;17.42;40.30;99225.00;107694;1253;107186;-61
2023/10/28 02:22:51;;;;;;;2.50;0.10;;;;;;;17.36;40.50;99223.78;107521;1253;97887;-63
2023/10/28 02:25:19;;;;;;;2.80;0.10;;;;;;;17.30;40.50;99228.43;107626;1255;98067;-63
2023/10/28 02:27:47;;;;;;;0.30;0.20;;;;;;;17.25;40.72;99231.22;107640;1253;111518;-62
2023/10/28 02:30:16;;;;;;;3.00;0.20;;;;;;;17.18;40.69;99235.55;107564;1256;109614;-61
2023/10/28 02:32:45;;;;;;;0.20;0.20;;;;;;;17.14;40.94;99233.13;107498;1253;107035;-60
2023/10/28 02:35:13;;;;;;;2.00;0.90;;;;;;;17.09;40.88;99234.89;107607;1251;97753;-62
2023/10/28 02:37:42;;;;;;;3.30;0.60;;;;;;;17.03;40.98;99237.88;107605;1251;97720;-63
2023/10/28 02:40:11;;;;;;;0.30;0.30;;;;;;;16.97;41.05;99242.52;107603;1255;111086;-61
2023/10/28 02:42:41;;;;;;;0.80;0.30;;;;;;;16.93;41.13;99244.02;107643;1251;109935;-63
2023/10/28 02:45:10;;;;;;;6.50;0.40;;;;;;;16.87;41.25;99253.39;107475;1251;107220;-69
2023/10/28 02:47:38;;;;;;;0.50;0.50;;;;;;;16.83;41.23;99257.51;107560;1252;97896;-61
2023/10/28 02:50:08;;;;;;;0.70;0.40;;;;;;;16.78;41.37;99270.34;107683;1251;97877;-61
2023/10/28 02:52:37;;;;;;;4.20;0.50;;;;;;;16.71;41.56;99275.59;107608;1252;110461;-62
2023/10/28 02:55:06;;;;;;;2.30;0.30;;;;;;;16.66;41.61;99281.87;107561;1251;109420;-60
2023/10/28 02:57:35;;;;;;;9.20;0.30;;;;;;;16.62;41.61;99293.44;107526;1252;107737;-61
2023/10/28 03:00:08;;;;;;;2.60;0.20;;;;;;;16.60;41.65;99299.38;107628;1253;98663;-62
2023/10/28 03:02:36;;;;;;;1.70;0.60;;;;;;;16.58;41.70;99294.59;107754;1250;97743;-62
2023/10/28 03:05:05;;;;;;;1.80;0.60;;;;;;;16.52;41.77;99296.39;107551;1252;110792;-62
2023/10/28 03:07:34;;;;;;;0.70;0.20;;;;;;;16.47;41.96;99300.11;107627;1253;108885;-61
2023/10/28 03:10:03;;;;;;;1.70;0.40;;;;;;;16.41;42.04;99306.38;107398;1252;107067;-61
2023/10/28 03:12:31;;;;;;;1.60;0.20;;;;;;;16.35;42.16;99309.85;107418;1251;97739;-62
2023/10/28 03:14:59;;;;;;;0.40;0.40;;;;;;;16.26;42.34;99316.33;107636;1253;97756;-61
2023/10/28 03:17:28;;;;;;;0.70;0.50;;;;;;;16.17;42.58;99321.71;107649;1253;112607;-61
2023/10/28 03:19:57;;;;;;;0.40;0.40;;;;;;;16.08;42.78;99329.05;107632;1253;110486;-62
2023/10/28 03:22:25;;;;;;;0.50;0.30;;;;;;;16.00;42.91;99329.46;107611;1251;108344;-63
2023/10/28 03:24:54;;;;;;;0.40;0.30;;;;;;;15.90;43.11;99335.37;107598;1251;97816;-62
2023/10/28 03:27:22;;;;;;;0.70;0.30;;;;;;;15.83;43.39;99335.44;107625;1251;97984;-62
2023/10/28 03:29:50;;;;;;;1.20;0.40;;;;;;;15.76;43.48;99337.83;107587;1253;111154;-61
2023/10/28 03:32:19;;;;;;;0.30;0.20;;;;;;;15.68;43.65;99339.69;107467;1253;109877;-64
2023/10/28 03:34:48;;;;;;;2.40;0.40;;;;;;;15.62;43.85;99338.80;107469;1252;107330;-62
2023/10/28 03:37:16;;;;;;;0.90;0.40;;;;;;;15.56;43.99;99337.27;107601;1253;97731;-61
2023/10/28 03:39:44;;;;;;;1.60;0.50;;;;;;;15.51;44.10;99341.60;107559;1253;97707;-62
2023/10/28 03:42:13;;;;;;;2.60;0.30;;;;;;;15.45;44.25;99342.98;107637;1252;111900;-60
2023/10/28 03:44:41;;;;;;;4.80;0.50;;;;;;;15.38;44.50;99348.56;107647;1251;108251;-62
2023/10/28 03:47:10;;;;;;;1.50;0.20;;;;;;;15.31;44.62;99350.90;107588;1249;108059;-61
2023/10/28 03:49:38;;;;;;;4.40;0.80;;;;;;;15.24;44.76;99352.33;107570;1251;97836;-62
2023/10/28 03:52:07;;;;;;;2.50;1.20;;;;;;;15.18;44.94;99356.97;107505;1251;97793;-61
2023/10/28 03:54:35;;;;;;;1.30;0.80;;;;;;;15.11;45.02;99363.48;107461;1253;112648;-62
2023/10/28 03:57:04;;;;;;;1.00;0.70;;;;;;;15.04;45.30;99365.04;107665;1255;108853;-62
2023/10/28 03:59:33;;;;;;;0.80;0.80;;;;;;;14.99;45.27;99368.96;107568;1251;106678;-61
2023/10/28 04:02:03;;;;;;;2.10;0.70;;;;;;;14.95;45.44;99374.73;107650;1251;97861;-63
2023/10/28 04:04:32;;;;;;;1.10;0.80;;;;;;;14.91;45.45;99375.45;107640;1251;98748;-63
2023/10/28 04:07:00;;;;;;;5.70;1.00;;;;;;;14.87;45.41;99380.48;107535;1253;111962;-61
2023/10/28 04:09:28;;;;;;;1.00;0.90;;;;;;;14.85;45.18;99384.25;107620;1251;108888;-62
2023/10/28 04:12:00;;;;;;;0.90;0.50;;;;;;;14.84;45.47;99382.20;107570;1251;108114;-62
2023/10/28 04:14:28;;;;;;;2.20;0.40;;;;;;;14.84;45.29;99380.11;107578;1250;97844;-61
2023/10/28 04:16:56;;;;;;;6.20;0.50;;;;;;;14.82;45.58;99383.73;107585;1250;97831;-62
2023/10/28 04:19:25;;;;;;;1.00;0.60;;;;;;;14.79;45.66;99390.13;107531;1253;111999;-61
2023/10/28 04:21:54;;;;;;;8.60;0.80;;;;;;;14.74;45.65;99401.75;107432;1253;109088;-62
2023/10/28 04:24:23;;;;;;;6.80;2.80;;;;;;;14.70;45.60;99400.81;107590;1251;108360;-63
2023/10/28 04:26:52;;;;;;;1.20;1.10;;;;;;;14.66;45.73;99406.02;107590;1251;97829;-62
2023/10/28 04:29:20;;;;;;;3.90;0.60;;;;;;;14.62;45.73;99405.59;107621;1253;98346;-60
2023/10/28 04:31:49;;;;;;;1.40;0.50;;;;;;;14.59;45.81;99405.07;107659;1252;111784;-62
2023/10/28 04:34:17;;;;;;;6.70;0.50;;;;;;;14.54;45.81;99404.23;107593;1253;109344;-62
2023/10/28 04:36:46;;;;;;;4.00;0.40;;;;;;;14.49;45.93;99410.43;107613;1254;107847;-61
2023/10/28 04:39:14;;;;;;;6.20;0.70;;;;;;;14.44;46.09;99415.72;107618;1251;97836;-61
2023/10/28 04:41:42;;;;;;;5.10;0.70;;;;;;;14.35;46.57;99419.80;107634;1251;97774;-61
2023/10/28 04:44:13;;;;;;;3.40;0.70;;;;;;;14.30;46.70;99420.88;107571;1251;111394;-62
2023/10/28 04:46:42;;;;;;;3.90;0.60;;;;;;;14.23;46.80;99431.26;107605;1252;109345;-62
2023/10/28 04:49:11;;;;;;;1.70;0.60;;;;;;;14.17;47.09;99440.89;107614;1251;108644;-62
2023/10/28 04:51:39;;;;;;;3.80;0.70;;;;;;;14.11;47.07;99456.34;107562;1251;97825;-62
2023/10/28 04:54:07;;;;;;;2.80;0.90;;;;;;;14.07;47.71;99465.33;107606;1253;97713;-61
2023/10/28 04:56:35;;;;;;;6.20;0.80;;;;;;;14.00;47.55;99476.24;107638;1253;110852;-62
2023/10/28 04:59:03;;;;;;;3.20;0.70;;;;;;;13.94;47.75;99484.58;107624;1251;109521;-63
2023/10/28 05:01:32;;;;;;;8.30;0.90;;;;;;;13.88;48.05;99489.83;107554;1251;107708;-62
2023/10/28 05:04:00;;;;;;;10.80;1.10;;;;;;;13.82;48.17;99500.45;107570;1253;97825;-61
2023/10/28 05:06:29;;;;;;;9.70;1.40;;;;;;;13.77;48.52;99507.57;107573;1253;97836;-62
2023/10/28 05:08:58;;;;;;;9.20;2.00;;;;;;;13.71;48.68;99517.61;107480;1254;111425;-61
2023/10/28 05:11:26;;;;;;;16.40;4.80;;;;;;;13.67;48.94;99528.80;107530;1252;108897;-62
2023/10/28 05:13:54;;;;;;;9.70;1.40;;;;;;;13.63;49.03;99537.39;107594;1253;108455;-62
2023/10/28 05:16:23;;;;;;;21.60;7.40;;;;;;;13.59;49.17;99536.61;107582;1253;97920;-62
2023/10/28 05:18:52;;;;;;;16.70;1.40;;;;;;;13.55;49.00;99545.15;107674;1251;97744;-62
2023/10/28 05:21:20;;;;;;;15.90;1.20;;;;;;;13.55;48.71;99552.59;107605;1251;111869;-62
2023/10/28 05:23:48;;;;;;;9.20;4.20;;;;;;;13.57;48.55;99552.13;107621;1252;108394;-62
2023/10/28 05:26:17;;;;;;;4.90;1.30;;;;;;;13.62;48.43;99560.41;107546;1251;107926;-61
2023/10/28 05:28:46;;;;;;;7.40;1.30;;;;;;;13.67;48.15;99566.80;107574;1251;97987;-61
2023/10/28 05:31:15;;;;;;;3.80;1.40;;;;;;;13.73;47.79;99570.35;107576;1251;97731;-61
2023/10/28 05:33:43;;;;;;;8.00;1.60;;;;;;;13.80;47.73;99575.31;107610;1251;110686;-62
2023/10/28 05:36:11;;;;;;;7.20;1.20;;;;;;;13.84;47.67;99581.02;107635;1251;109659;-63
2023/10/28 05:38:40;;;;;;;4.80;2.20;;;;;;;13.85;47.54;99588.92;107564;1252;107956;-62
2023/10/28 05:41:09;;;;;;;5.70;2.80;;;;;;;13.87;47.58;99594.66;107560;1251;97941;-61
2023/10/28 05:43:38;;;;;;;9.30;5.10;;;;;;;13.88;47.51;99601.61;107692;1251;98475;-61
2023/10/28 05:46:06;;;;;;;5.20;2.00;;;;;;;13.91;47.61;99607.31;107562;1251;111735;-61
2023/10/28 05:48:35;;;;;;;4.90;2.40;;;;;;;13.94;47.78;99615.09;107651;1250;109479;-61
2023/10/28 05:51:05;;;;;;;8.30;1.80;;;;;;;13.98;47.90;99627.08;107583;1251;108292;-61
2023/10/28 05:53:33;;;;;;;2.50;1.60;;;;;;;13.99;47.57;99631.09;107560;1253;97887;-62
2023/10/28 05:56:01;;;;;;;8.00;2.70;;;;;;;14.00;47.61;99639.83;107625;1251;97829;-62
2023/10/28 05:58:31;;;;;;;54.20;5.40;;;;;;;14.01;47.68;99653.38;107635;1255;111215;-61
2023/10/28 06:01:01;;;;;;;8.00;2.30;;;;;;;14.03;47.65;99657.84;107608;1251;108978;-63
2023/10/28 06:03:29;;;;;;;7.30;2.40;;;;;;;14.05;47.72;99660.96;107525;1253;108594;-62
2023/10/28 06:05:57;;;;;;;9.70;2.20;;;;;;;14.08;47.45;99664.05;107576;1251;97842;-62
2023/10/28 06:08:26;;;;;;;5.30;1.90;;;;;;;14.12;47.44;99671.00;107524;1251;97831;-62
2023/10/28 06:10:56;;;;;;;6.60;1.50;;;;;;;14.16;47.09;99675.02;107590;1253;112263;-62
2023/10/28 06:13:25;;;;;;;2.70;1.20;;;;;;;14.20;47.03;99681.52;107501;1252;109828;-61
2023/10/28 06:15:53;;;;;;;11.00;1.60;;;;;;;14.23;47.00;99688.67;107575;1251;108158;-63
2023/10/28 06:18:21;;;;;;;5.00;1.30;;;;;;;14.27;47.11;99696.36;107533;1253;97813;-62
2023/10/28 06:20:50;;;;;;;4.40;1.80;;;;;;;14.31;47.06;99703.64;107584;1252;97834;-62
2023/10/28 06:23:18;;;;;;;10.40;2.00;;;;;;;14.36;46.84;99712.96;107520;1253;111577;-62
2023/10/28 06:25:46;;;;;;;7.60;2.10;;;;;;;14.42;46.97;99713.36;107563;1253;109712;-62
2023/10/28 06:28:15;;;;;;;6.70;1.90;;;;;;;14.46;46.81;99712.68;107524;1251;108020;-61
2023/10/28 06:30:48;;;;;;;5.60;2.40;;;;;;;14.49;46.46;99715.16;107596;1253;97902;-62
2023/10/28 06:33:17;;;;;;;6.80;2.10;;;;;;;14.54;46.52;99718.02;107573;1253;97813;-62
2023/10/28 06:35:46;;;;;;;8.00;1.60;;;;;;;14.59;46.48;99716.13;107552;1252;112417;-61
2023/10/28 06:38:15;;;;;;;4.10;1.90;;;;;;;14.64;46.02;99717.56;107517;1254;109715;-62
2023/10/28 06:40:43;;;;;;;7.90;2.40;;;;;;;14.71;45.93;99722.11;107469;1251;107382;-62
2023/10/28 06:43:11;;;;;;;4.60;1.40;;;;;;;14.77;45.72;99729.53;107534;1251;97896;-62
2023/10/28 06:45:40;;;;;;;4.00;1.20;;;;;;;14.82;45.75;99732.35;107579;1251;97716;-61
2023/10/28 06:48:12;;;;;;;6.00;1.80;;;;;;;14.87;45.64;99737.86;107571;1252;111214;-62
2023/10/28 06:50:40;;;;;;;5.60;2.00;;;;;;;14.92;45.44;99736.52;107553;1253;109856;-60
2023/10/28 06:53:11;;;;;;;8.20;1.90;;;;;;;14.97;45.48;99737.45;107498;1252;108051;-63
2023/10/28 06:55:39;;;;;;;3.70;1.50;;;;;;;15.05;45.39;99736.58;107561;1251;97958;-63
2023/10/28 06:58:07;;;;;;;3.90;1.50;;;;;;;15.13;45.23;99732.33;107568;1252;98524;-61
2023/10/28 07:00:37;;;;;;;4.10;1.80;;;;;;;15.22;45.38;99736.80;107589;1252;112154;-62
2023/10/28 07:03:05;;;;;;;2.80;1.60;;;;;;;15.31;45.18;99743.06;107568;1253;108725;-62
2023/10/28 07:05:34;;;;;;;8.40;1.90;;;;;;;15.41;44.71;99751.76;107451;1255;107286;-63
2023/10/28 07:08:03;;;;;;;7.70;4.70;;;;;;;15.51;44.37;99763.52;107598;1254;97906;-61
2023/10/28 07:10:31;;;;;;;11.60;2.10;;;;;;;15.61;44.33;99761.37;107688;1252;97827;-62
2023/10/28 07:12:59;;;;;;;10.70;1.30;;;;;;;15.71;43.85;99769.35;107647;1253;112002;-62
2023/10/28 07:15:28;;;;;;;1.60;1.10;;;;;;;15.81;43.82;99765.54;107558;1253;110111;-61
2023/10/28 07:17:56;;;;;;;3.60;1.20;;;;;;;15.91;43.70;99764.25;107571;1251;107343;-61
2023/10/28 07:20:24;;;;;;;8.90;1.80;;;;;;;16.03;43.64;99773.69;107514;1253;97829;-63
2023/10/28 07:22:53;;;;;;;3.70;2.20;;;;;;;16.13;43.27;99781.27;107569;1253;98348;-62
2023/10/28 07:25:21;;;;;;;1.60;0.80;;;;;;;16.24;42.53;99783.05;107556;1251;112395;-61
2023/10/28 07:27:49;;;;;;;8.60;1.50;;;;;;;16.35;42.05;99783.19;107605;1251;110297;-62
2023/10/28 07:30:18;;;;;;;41.00;3.50;;;;;;;16.45;41.72;99784.59;107537;1254;108542;-62
2023/10/28 07:32:46;;;;;;;82.70;6.10;;;;;;;16.54;41.28;99790.58;107582;1252;97725;-61
2023/10/28 07:35:16;;;;;;;56.90;5.70;;;;;;;16.64;40.95;99786.30;107582;1251;97818;-62
2023/10/28 07:37:46;;;;;;;124.50;12.70;;;;;;;16.75;41.19;99792.41;107527;1253;111286;-63
2023/10/28 07:40:15;;;;;;;65.10;6.00;;;;;;;16.85;40.40;99795.51;107521;1252;109487;-63
2023/10/28 07:42:44;;;;;;;146.20;15.80;;;;;;;16.93;39.90;99797.87;107568;1253;108133;-65
2023/10/28 07:45:13;;;;;;;8.40;2.40;;;;;;;17.02;40.19;99800.84;107551;1253;97811;-61
2023/10/28 07:47:42;;;;;;;6.10;1.10;;;;;;;17.14;39.95;99804.07;107473;1257;98235;-62
2023/10/28 07:50:10;;;;;;;2.50;1.50;;;;;;;17.24;39.67;99808.54;107625;1251;111263;-61
2023/10/28 07:52:39;;;;;;;7.80;2.80;;;;;;;17.34;39.26;99813.34;107576;1251;109349;-61
2023/10/28 07:55:08;;;;;;;4.40;1.00;;;;;;;17.45;38.95;99815.63;107641;1255;107450;-61
2023/10/28 07:57:37;;;;;;;3.80;0.90;;;;;;;17.55;38.73;99811.85;107546;1251;97721;-62
2023/10/28 08:00:07;;;;;;;5.10;0.90;;;;;;;17.68;38.33;99820.91;107612;1251;97720;-63
2023/10/28 08:02:46;;;;;;;1.00;0.60;;;;;;;17.79;37.84;99822.77;107573;1252;110814;-62
2023/10/28 08:05:14;;;;;;;1.70;0.80;;;;;;;17.93;37.89;99830.79;107551;1255;108966;-63
2023/10/28 08:07:43;;;;;;;1.80;0.60;;;;;;;18.11;38.07;99832.96;107550;1253;107953;-62
2023/10/28 08:10:11;;;;;;;5.40;0.80;;;;;;;18.26;37.52;99842.67;107576;1253;97954;-61
2023/10/28 08:12:39;;;;;;;2.20;0.80;;;;;;;18.37;36.23;99842.80;107546;1252;97715;-62
2023/10/28 08:15:08;;;;;;;6.20;0.80;;;;;;;18.48;36.50;99842.00;107559;1253;111634;-62
2023/10/28 08:17:36;;;;;;;2.80;0.60;;;;;;;18.64;36.10;99844.36;107551;1253;108375;-63
2023/10/28 08:20:05;;;;;;;2.70;1.00;;;;;;;18.77;35.80;99844.91;107508;1253;109257;-62
2023/10/28 08:22:35;;;;;;;2.50;0.50;;;;;;;18.90;35.24;99848.89;107524;1252;97951;-60
2023/10/28 08:25:04;;;;;;;1.10;0.60;;;;;;;19.01;34.82;99861.28;107506;1251;97821;-62
2023/10/28 08:27:32;;;;;;;3.40;1.30;;;;;;;19.16;35.10;99862.42;107626;1253;110913;-61
2023/10/28 08:30:01;;;;;;;3.50;0.80;;;;;;;19.35;34.72;99868.58;107518;1253;108885;-62
2023/10/28 08:32:32;;;;;;;2.80;0.70;;;;;;;19.47;33.88;99870.17;107528;1251;107151;-61
2023/10/28 08:35:00;;;;;;;1.20;0.60;;;;;;;19.58;33.96;99860.46;107563;1251;97828;-63
2023/10/28 08:37:28;;;;;;;0.90;0.70;;;;;;;19.75;33.61;99866.08;107530;1251;97928;-62
2023/10/28 08:39:56;;;;;;;3.10;0.50;;;;;;;19.87;33.20;99876.61;107463;1253;111332;-63
2023/10/28 08:42:25;;;;;;;2.50;0.80;;;;;;;20.01;32.93;99884.42;107479;1251;109402;-63
2023/10/28 08:44:58;;;;;;;2.30;0.50;;;;;;;20.24;32.89;99886.65;107538;1252;107695;-62
2023/10/28 08:47:27;;;;;;;1.20;0.70;;;;;;;20.64;32.44;99897.43;107560;1253;97851;-63
2023/10/28 08:49:58;;;;;;;2.70;0.80;;;;;;;21.17;31.91;99894.90;107578;1253;98459;-63
2023/10/28 08:52:31;;;;;;;1.30;0.90;;;;;;;22.05;31.64;99899.79;107679;1251;111710;-62
2023/10/28 08:55:01;;;;;;;2.00;0.90;;;;;;;22.96;30.56;99903.82;107559;1250;108945;-63
2023/10/28 08:57:30;;;;;;;4.30;1.30;;;;;;;23.73;28.94;99914.02;107399;1254;108192;-62
2023/10/28 08:59:58;;;;;;;1.30;0.70;;;;;;;24.42;29.36;99911.27;107451;1251;97724;-63
2023/10/28 09:02:29;;;;;;;2.60;0.70;;;;;;;25.00;27.13;99924.41;107474;1253;97918;-63
2023/10/28 09:04:58;;;;;;;3.80;0.50;;;;;;;25.35;26.48;99926.70;107527;1253;112751;-63
2023/10/28 09:07:26;;;;;;;6.20;0.60;;;;;;;25.61;25.33;99931.09;107406;1253;108928;-63
2023/10/28 09:09:59;;;;;;;1.10;0.90;;;;;;;25.71;25.31;99939.88;107453;1254;107554;-61
2023/10/28 09:12:27;;;;;;;2.20;0.80;;;;;;;26.03;24.99;99935.68;107566;1253;97836;-63
2023/10/28 09:14:55;;;;;;;3.50;0.50;;;;;;;26.46;25.60;99933.23;107450;1253;97733;-63
2023/10/28 09:17:24;;;;;;;1.70;0.70;;;;;;;26.92;25.10;99933.16;107587;1253;111771;-61
2023/10/28 09:19:52;;;;;;;4.60;3.30;;;;;;;27.59;25.25;99934.52;107510;1253;110031;-63
2023/10/28 09:22:20;;;;;;;6.00;5.00;;;;;;;28.18;24.54;99925.52;107570;1253;107216;-61
2023/10/28 09:24:52;;;;;;;2.00;0.70;;;;;;;28.64;23.46;99926.27;107515;1252;97829;-62
2023/10/28 09:27:21;;;;;;;0.80;0.50;;;;;;;29.06;23.43;99922.45;107614;1253;98459;-64
2023/10/28 09:29:49;;;;;;;1.30;0.80;;;;;;;29.53;23.70;99921.65;107496;1253;114202;-63
2023/10/28 09:32:18;;;;;;;1.70;0.80;;;;;;;29.87;22.56;99923.71;107572;1253;110455;-64
2023/10/28 09:34:46;;;;;;;1.80;0.60;;;;;;;30.18;21.86;99918.31;107492;1253;107173;-62
2023/10/28 09:37:15;;;;;;;3.30;0.80;;;;;;;30.07;20.71;99924.26;107507;1255;98275;-61
2023/10/28 09:39:47;;;;;;;3.70;0.70;;;;;;;29.73;20.97;99923.28;107505;1253;97901;-62
2023/10/28 09:42:16;;;;;;;1.30;0.60;;;;;;;29.53;20.74;99925.88;107569;1253;112338;-63
2023/10/28 09:44:45;;;;;;;1.80;0.40;;;;;;;29.02;20.67;99934.77;107549;1253;109067;-62
2023/10/28 09:47:21;;;;;;;2.80;0.40;;;;;;;28.85;21.30;99927.26;107557;1253;108536;-63
2023/10/28 09:49:58;;;;;;;2.70;0.60;;;;;;;29.36;21.57;99923.16;107584;1251;97819;-62
2023/10/28 09:52:30;;;;;;;5.10;0.60;;;;;;;29.88;20.89;99922.15;107614;1251;97827;-62
2023/10/28 09:55:07;;;;;;;4.70;1.00;;;;;;;30.08;20.53;99921.61;107543;1251;112062;-62
2023/10/28 09:57:36;;;;;;;1.20;0.60;;;;;;;30.40;19.69;99925.09;107612;1253;109956;-64
2023/10/28 10:00:17;;;;;;;1.30;0.40;;;;;;;30.19;19.79;99916.14;107589;1253;106481;-63
2023/10/28 10:03:23;;;;;;;0.60;0.50;;;;;;;30.14;19.73;99923.05;107577;1252;97822;-63
2023/10/28 10:05:53;;;;;;;4.00;1.50;;;;;;;30.23;19.76;99921.27;107520;1251;97832;-63
2023/10/28 10:08:22;;;;;;;1.50;0.70;;;;;;;29.99;20.01;99922.49;107546;1253;110821;-63
2023/10/28 10:10:57;;;;;;;0.90;0.50;;;;;;;29.77;20.09;99914.78;107319;1253;352191;-62
2023/10/28 10:13:26;;;;;;;1.10;0.70;;;;;;;29.87;20.27;99919.33;107485;1253;107244;-62
2023/10/28 10:16:02;;;;;;;4.20;0.40;;;;;;;29.85;19.93;99923.83;107502;1253;97737;-63
2023/10/28 10:18:43;;;;;;;3.80;0.50;;;;;;;29.83;20.11;99923.52;107560;1253;97702;-62
2023/10/28 10:21:12;;;;;;;1.60;0.50;;;;;;;29.83;19.79;99935.26;107553;1253;110788;-61
2023/10/28 10:23:50;;;;;;;4.30;0.70;;;;;;;30.44;19.86;99935.60;107526;1253;109094;-62
2023/10/28 10:26:24;;;;;;;3.40;0.50;;;;;;;30.81;19.19;99941.08;107611;1253;109121;-61
2023/10/28 10:28:55;;;;;;;3.00;0.90;;;;;;;31.15;19.41;99934.61;107501;1253;97933;-62
2023/10/28 10:31:35;;;;;;;0.80;0.70;;;;;;;31.62;18.75;99947.70;107607;1253;98358;-62
2023/10/28 10:34:08;;;;;;;2.50;0.80;;;;;;;31.44;18.31;99947.32;107549;1251;111315;-62
2023/10/28 10:36:42;;;;;;;2.40;0.60;;;;;;;31.80;18.43;99947.80;107539;1253;110137;-63
2023/10/28 10:39:15;;;;;;;1.30;0.70;;;;;;;31.84;17.96;99959.73;107598;1251;108439;-62
2023/10/28 10:41:51;;;;;;;2.50;0.80;;;;;;;31.73;17.70;99959.52;107463;1253;97827;-62
2023/10/28 10:44:32;;;;;;;5.90;0.60;;;;;;;31.51;18.02;99957.67;107541;1251;97814;-62
2023/10/28 10:47:02;;;;;;;6.00;0.70;;;;;;;31.69;18.11;99960.96;107555;1253;111420;-62
2023/10/28 10:49:32;;;;;;;0.40;0.40;;;;;;;31.92;18.31;99954.79;107598;1253;108392;-62
2023/10/28 10:52:01;;;;;;;1.30;0.60;;;;;;;32.16;17.68;99956.05;107643;1254;105900;-62
2023/10/28 10:54:38;;;;;;;3.30;0.60;;;;;;;31.85;17.43;99963.25;107584;1253;97917;-62
2023/10/28 10:57:08;;;;;;;2.40;0.80;;;;;;;31.45;17.90;99966.86;107615;1251;98402;-62
2023/10/28 10:59:40;;;;;;;1.30;0.70;;;;;;;31.39;18.05;99959.42;107632;1253;110485;-63
2023/10/28 11:02:10;;;;;;;1.30;0.60;;;;;;;31.71;17.75;99966.50;107604;1253;110093;-63
2023/10/28 11:04:39;;;;;;;1.10;0.50;;;;;;;31.95;17.85;99971.80;107533;1253;107374;-61
2023/10/28 11:07:09;;;;;;;1.50;0.70;;;;;;;32.01;17.89;99963.61;107611;1253;97983;-62
2023/10/28 11:09:40;;;;;;;1.10;0.40;;;;;;;32.11;17.87;99968.13;107629;1253;97782;-62
2023/10/28 11:12:09;;;;;;;1.20;0.60;;;;;;;31.97;17.73;99975.23;107543;1253;111673;-63
2023/10/28 11:14:37;;;;;;;2.10;0.60;;;;;;;31.73;17.59;99980.59;107590;1255;109874;-62
2023/10/28 11:17:06;;;;;;;0.80;0.50;;;;;;;31.33;17.84;99985.55;107478;1252;107678;-63
2023/10/28 11:19:34;;;;;;;0.50;0.50;;;;;;;30.77;18.21;99988.30;107624;1251;97844;-65
2023/10/28 11:22:03;;;;;;;2.30;0.80;;;;;;;30.40;18.59;99983.95;107545;1253;97816;-64
2023/10/28 11:24:34;;;;;;;1.00;0.50;;;;;;;30.16;18.67;99991.66;107575;1253;111266;-62
2023/10/28 11:27:02;;;;;;;4.20;0.60;;;;;;;29.77;19.37;99993.06;107592;1253;110225;-62
2023/10/28 11:29:31;;;;;;;1.00;0.60;;;;;;;29.40;19.67;99990.08;107598;1255;108669;-63